Annandale, Pennsylvania
Current Conditions -  °F | °C
As of 5:15 PM on Thursday 23 Oct 2014 (Local Time) from KFKL Reporting Station
Clear Clear  
Wind Chill: 55°   Ceiling: Unl
Heat Index: 55°   Visibility: 10mi
Dew Point: 39°   Wind: 8mph
Humidity: 54%   Direction: 330°NNW
Pressure: 30.08"   Gusts: NA
Location:  41.1142°N, 79.9031°W
Report Text: KFKL 232115Z 33007KT 10SM CLR 13/04 A3008 RMK AO1
Loading
Personal Weather Stations






























Interactive Weather Map New forecast layout! Learn more

10-Day Weather Forecast

Advertisements
Track Severe Weather on mobile